sensor_id;sensor_type;location;lat;lon;timestamp;P1;durP1;ratioP1;P2;durP2;ratioP2
3712;SDS011;1872;51.406;6.856;2024-03-02T00:00:04;2.20;;;2.10;;
3712;SDS011;1872;51.406;6.856;2024-03-02T00:02:45;2.93;;;2.70;;
3712;SDS011;1872;51.406;6.856;2024-03-02T00:05:13;2.60;;;2.40;;
3712;SDS011;1872;51.406;6.856;2024-03-02T00:07:44;2.83;;;2.63;;
3712;SDS011;1872;51.406;6.856;2024-03-02T00:10:11;2.60;;;2.40;;
3712;SDS011;1872;51.406;6.856;2024-03-02T00:12:44;2.90;;;2.70;;
3712;SDS011;1872;51.406;6.856;2024-03-02T00:18:10;4.70;;;2.70;;
3712;SDS011;1872;51.406;6.856;2024-03-02T00:20:40;3.17;;;2.70;;
3712;SDS011;1872;51.406;6.856;2024-03-02T00:23:06;2.67;;;2.47;;
3712;SDS011;1872;51.406;6.856;2024-03-02T00:25:40;2.63;;;2.43;;
3712;SDS011;1872;51.406;6.856;2024-03-02T00:28:50;2.80;;;2.60;;
3712;SDS011;1872;51.406;6.856;2024-03-02T00:31:12;2.90;;;2.70;;
3712;SDS011;1872;51.406;6.856;2024-03-02T00:33:45;2.87;;;2.43;;
3712;SDS011;1872;51.406;6.856;2024-03-02T00:36:16;2.50;;;2.30;;
3712;SDS011;1872;51.406;6.856;2024-03-02T00:38:47;3.00;;;2.70;;
3712;SDS011;1872;51.406;6.856;2024-03-02T00:41:32;2.50;;;2.40;;
3712;SDS011;1872;51.406;6.856;2024-03-02T00:49:48;2.73;;;2.53;;
3712;SDS011;1872;51.406;6.856;2024-03-02T00:52:14;3.13;;;2.87;;
3712;SDS011;1872;51.406;6.856;2024-03-02T00:54:39;2.67;;;2.57;;
3712;SDS011;1872;51.406;6.856;2024-03-02T00:57:05;2.70;;;2.50;;
3712;SDS011;1872;51.406;6.856;2024-03-02T00:59:34;2.70;;;2.50;;
3712;SDS011;1872;51.406;6.856;2024-03-02T01:02:00;2.97;;;2.70;;
3712;SDS011;1872;51.406;6.856;2024-03-02T01:04:26;2.43;;;2.30;;
3712;SDS011;1872;51.406;6.856;2024-03-02T01:06:52;4.43;;;2.77;;
3712;SDS011;1872;51.406;6.856;2024-03-02T01:09:18;4.20;;;2.80;;
3712;SDS011;1872;51.406;6.856;2024-03-02T01:11:44;3.50;;;3.10;;
3712;SDS011;1872;51.406;6.856;2024-03-02T01:14:09;2.43;;;2.33;;
3712;SDS011;1872;51.406;6.856;2024-03-02T01:16:35;2.70;;;2.50;;
3712;SDS011;1872;51.406;6.856;2024-03-02T01:19:02;2.83;;;2.63;;
3712;SDS011;1872;51.406;6.856;2024-03-02T01:21:28;3.50;;;2.23;;
3712;SDS011;1872;51.406;6.856;2024-03-02T01:23:53;2.50;;;2.10;;
3712;SDS011;1872;51.406;6.856;2024-03-02T01:26:19;2.90;;;2.60;;
3712;SDS011;1872;51.406;6.856;2024-03-02T01:28:45;2.67;;;2.40;;
3712;SDS011;1872;51.406;6.856;2024-03-02T01:31:11;2.70;;;2.50;;
3712;SDS011;1872;51.406;6.856;2024-03-02T01:33:38;2.90;;;2.60;;
3712;SDS011;1872;51.406;6.856;2024-03-02T01:36:04;2.40;;;2.23;;
3712;SDS011;1872;51.406;6.856;2024-03-02T01:38:29;3.97;;;2.63;;
3712;SDS011;1872;51.406;6.856;2024-03-02T01:40:56;2.33;;;2.13;;
3712;SDS011;1872;51.406;6.856;2024-03-02T01:43:23;2.73;;;2.53;;
3712;SDS011;1872;51.406;6.856;2024-03-02T01:45:49;2.50;;;2.33;;
3712;SDS011;1872;51.406;6.856;2024-03-02T01:48:15;4.47;;;2.53;;
3712;SDS011;1872;51.406;6.856;2024-03-02T01:50:40;3.17;;;2.60;;
3712;SDS011;1872;51.406;6.856;2024-03-02T01:53:06;2.57;;;2.37;;
3712;SDS011;1872;51.406;6.856;2024-03-02T01:55:34;3.07;;;2.50;;
3712;SDS011;1872;51.406;6.856;2024-03-02T01:57:59;2.60;;;2.40;;
3712;SDS011;1872;51.406;6.856;2024-03-02T02:00:26;2.83;;;2.50;;
3712;SDS011;1872;51.406;6.856;2024-03-02T02:02:52;2.70;;;2.40;;
3712;SDS011;1872;51.406;6.856;2024-03-02T02:05:18;3.40;;;3.00;;
3712;SDS011;1872;51.406;6.856;2024-03-02T02:07:44;2.10;;;2.00;;
3712;SDS011;1872;51.406;6.856;2024-03-02T02:10:10;2.30;;;2.10;;
3712;SDS011;1872;51.406;6.856;2024-03-02T02:12:37;2.93;;;2.63;;
3712;SDS011;1872;51.406;6.856;2024-03-02T02:15:03;2.23;;;2.13;;
3712;SDS011;1872;51.406;6.856;2024-03-02T02:17:30;2.50;;;2.30;;
3712;SDS011;1872;51.406;6.856;2024-03-02T02:19:56;2.23;;;2.03;;
3712;SDS011;1872;51.406;6.856;2024-03-02T02:22:22;2.43;;;2.27;;
3712;SDS011;1872;51.406;6.856;2024-03-02T02:24:47;2.33;;;2.20;;
3712;SDS011;1872;51.406;6.856;2024-03-02T02:27:13;2.47;;;2.10;;
3712;SDS011;1872;51.406;6.856;2024-03-02T02:29:40;2.40;;;2.30;;
3712;SDS011;1872;51.406;6.856;2024-03-02T02:32:07;2.67;;;2.47;;
3712;SDS011;1872;51.406;6.856;2024-03-02T02:34:33;3.93;;;2.30;;
3712;SDS011;1872;51.406;6.856;2024-03-02T02:36:58;2.40;;;2.20;;
3712;SDS011;1872;51.406;6.856;2024-03-02T02:39:25;2.33;;;2.20;;
3712;SDS011;1872;51.406;6.856;2024-03-02T02:41:51;2.60;;;2.50;;
3712;SDS011;1872;51.406;6.856;2024-03-02T02:44:17;2.50;;;2.30;;
3712;SDS011;1872;51.406;6.856;2024-03-02T02:46:43;2.53;;;2.33;;
3712;SDS011;1872;51.406;6.856;2024-03-02T02:49:09;1.97;;;1.83;;
3712;SDS011;1872;51.406;6.856;2024-03-02T02:51:35;2.67;;;2.43;;
3712;SDS011;1872;51.406;6.856;2024-03-02T02:54:02;2.70;;;2.50;;
3712;SDS011;1872;51.406;6.856;2024-03-02T02:56:27;2.70;;;2.50;;
3712;SDS011;1872;51.406;6.856;2024-03-02T02:58:53;2.33;;;2.13;;
3712;SDS011;1872;51.406;6.856;2024-03-02T03:01:19;2.30;;;2.10;;
3712;SDS011;1872;51.406;6.856;2024-03-02T03:03:45;2.33;;;2.23;;
3712;SDS011;1872;51.406;6.856;2024-03-02T03:06:11;2.20;;;2.00;;
3712;SDS011;1872;51.406;6.856;2024-03-02T03:08:37;2.60;;;2.40;;
3712;SDS011;1872;51.406;6.856;2024-03-02T03:11:03;2.60;;;2.13;;
3712;SDS011;1872;51.406;6.856;2024-03-02T03:13:30;2.63;;;2.20;;
3712;SDS011;1872;51.406;6.856;2024-03-02T03:15:57;2.20;;;2.10;;
3712;SDS011;1872;51.406;6.856;2024-03-02T03:18:22;2.40;;;2.23;;
3712;SDS011;1872;51.406;6.856;2024-03-02T03:20:50;5.40;;;2.27;;
3712;SDS011;1872;51.406;6.856;2024-03-02T03:23:16;2.33;;;2.23;;
3712;SDS011;1872;51.406;6.856;2024-03-02T03:25:42;4.03;;;2.30;;
3712;SDS011;1872;51.406;6.856;2024-03-02T03:28:08;3.60;;;2.73;;
3712;SDS011;1872;51.406;6.856;2024-03-02T03:30:37;2.90;;;2.70;;
3712;SDS011;1872;51.406;6.856;2024-03-02T03:33:04;2.77;;;2.23;;
3712;SDS011;1872;51.406;6.856;2024-03-02T03:35:31;5.73;;;2.40;;
3712;SDS011;1872;51.406;6.856;2024-03-02T03:37:57;2.40;;;2.20;;
3712;SDS011;1872;51.406;6.856;2024-03-02T03:40:23;2.73;;;2.50;;
3712;SDS011;1872;51.406;6.856;2024-03-02T03:42:49;2.60;;;2.40;;
3712;SDS011;1872;51.406;6.856;2024-03-02T03:45:15;2.43;;;2.23;;
3712;SDS011;1872;51.406;6.856;2024-03-02T03:47:41;2.67;;;2.40;;
3712;SDS011;1872;51.406;6.856;2024-03-02T03:50:07;2.00;;;1.90;;
3712;SDS011;1872;51.406;6.856;2024-03-02T03:52:33;5.10;;;3.30;;
3712;SDS011;1872;51.406;6.856;2024-03-02T03:54:59;5.37;;;2.30;;
3712;SDS011;1872;51.406;6.856;2024-03-02T03:57:25;2.20;;;1.90;;
3712;SDS011;1872;51.406;6.856;2024-03-02T03:59:52;2.80;;;2.60;;
3712;SDS011;1872;51.406;6.856;2024-03-02T04:02:18;1.87;;;1.77;;
3712;SDS011;1872;51.406;6.856;2024-03-02T04:04:43;2.50;;;2.30;;
3712;SDS011;1872;51.406;6.856;2024-03-02T04:07:09;2.37;;;2.17;;
3712;SDS011;1872;51.406;6.856;2024-03-02T04:09:35;2.47;;;2.20;;
3712;SDS011;1872;51.406;6.856;2024-03-02T04:12:02;2.40;;;2.20;;
3712;SDS011;1872;51.406;6.856;2024-03-02T04:14:27;2.77;;;2.57;;
3712;SDS011;1872;51.406;6.856;2024-03-02T04:16:53;2.50;;;2.37;;
3712;SDS011;1872;51.406;6.856;2024-03-02T04:19:19;2.60;;;2.07;;
3712;SDS011;1872;51.406;6.856;2024-03-02T04:21:44;2.30;;;2.10;;
3712;SDS011;1872;51.406;6.856;2024-03-02T04:24:45;2.70;;;2.50;;
3712;SDS011;1872;51.406;6.856;2024-03-02T04:27:11;2.30;;;2.20;;
3712;SDS011;1872;51.406;6.856;2024-03-02T04:33:01;2.80;;;2.60;;
3712;SDS011;1872;51.406;6.856;2024-03-02T04:35:27;2.67;;;2.47;;
3712;SDS011;1872;51.406;6.856;2024-03-02T04:37:54;2.50;;;2.40;;
3712;SDS011;1872;51.406;6.856;2024-03-02T04:40:19;3.30;;;2.50;;
3712;SDS011;1872;51.406;6.856;2024-03-02T04:42:45;3.30;;;2.43;;
3712;SDS011;1872;51.406;6.856;2024-03-02T04:45:11;2.90;;;2.67;;
3712;SDS011;1872;51.406;6.856;2024-03-02T04:47:37;6.93;;;2.20;;
3712;SDS011;1872;51.406;6.856;2024-03-02T04:50:02;2.27;;;2.13;;
3712;SDS011;1872;51.406;6.856;2024-03-02T04:52:28;2.90;;;2.60;;
3712;SDS011;1872;51.406;6.856;2024-03-02T04:54:54;2.40;;;2.20;;
3712;SDS011;1872;51.406;6.856;2024-03-02T04:57:42;2.73;;;2.47;;
3712;SDS011;1872;51.406;6.856;2024-03-02T05:00:08;3.30;;;3.00;;
3712;SDS011;1872;51.406;6.856;2024-03-02T05:02:34;2.83;;;2.63;;
3712;SDS011;1872;51.406;6.856;2024-03-02T05:05:00;3.80;;;2.77;;
3712;SDS011;1872;51.406;6.856;2024-03-02T05:07:27;2.20;;;2.10;;
3712;SDS011;1872;51.406;6.856;2024-03-02T05:09:53;2.93;;;2.63;;
3712;SDS011;1872;51.406;6.856;2024-03-02T05:12:19;3.20;;;2.20;;
3712;SDS011;1872;51.406;6.856;2024-03-02T05:15:03;3.20;;;3.00;;
3712;SDS011;1872;51.406;6.856;2024-03-02T05:17:29;2.80;;;2.60;;
3712;SDS011;1872;51.406;6.856;2024-03-02T05:19:55;3.43;;;2.47;;
3712;SDS011;1872;51.406;6.856;2024-03-02T05:22:20;2.93;;;2.67;;
3712;SDS011;1872;51.406;6.856;2024-03-02T05:24:46;4.30;;;2.70;;
3712;SDS011;1872;51.406;6.856;2024-03-02T05:27:12;2.33;;;2.13;;
3712;SDS011;1872;51.406;6.856;2024-03-02T05:29:38;3.07;;;2.40;;
3712;SDS011;1872;51.406;6.856;2024-03-02T05:32:03;4.03;;;2.47;;
3712;SDS011;1872;51.406;6.856;2024-03-02T05:34:29;2.80;;;2.60;;
3712;SDS011;1872;51.406;6.856;2024-03-02T05:36:56;2.17;;;2.07;;
3712;SDS011;1872;51.406;6.856;2024-03-02T05:39:22;4.03;;;2.50;;
3712;SDS011;1872;51.406;6.856;2024-03-02T05:41:48;3.33;;;3.03;;
3712;SDS011;1872;51.406;6.856;2024-03-02T05:44:14;2.30;;;2.20;;
3712;SDS011;1872;51.406;6.856;2024-03-02T05:46:40;2.73;;;2.53;;
3712;SDS011;1872;51.406;6.856;2024-03-02T05:49:07;2.70;;;2.60;;
3712;SDS011;1872;51.406;6.856;2024-03-02T05:51:33;2.40;;;2.30;;
3712;SDS011;1872;51.406;6.856;2024-03-02T05:53:58;2.80;;;2.60;;
3712;SDS011;1872;51.406;6.856;2024-03-02T05:56:24;3.20;;;2.77;;
3712;SDS011;1872;51.406;6.856;2024-03-02T05:58:50;3.03;;;2.80;;
3712;SDS011;1872;51.406;6.856;2024-03-02T06:01:34;2.97;;;2.67;;
3712;SDS011;1872;51.406;6.856;2024-03-02T06:04:00;2.70;;;2.53;;
3712;SDS011;1872;51.406;6.856;2024-03-02T06:06:26;2.60;;;2.40;;
3712;SDS011;1872;51.406;6.856;2024-03-02T06:08:51;2.80;;;2.60;;
3712;SDS011;1872;51.406;6.856;2024-03-02T06:11:19;2.87;;;2.67;;
3712;SDS011;1872;51.406;6.856;2024-03-02T06:13:44;2.60;;;2.40;;
3712;SDS011;1872;51.406;6.856;2024-03-02T06:16:10;4.13;;;2.80;;
3712;SDS011;1872;51.406;6.856;2024-03-02T06:24:55;3.23;;;2.93;;
3712;SDS011;1872;51.406;6.856;2024-03-02T06:27:21;3.47;;;3.20;;
3712;SDS011;1872;51.406;6.856;2024-03-02T06:29:46;3.23;;;2.40;;
3712;SDS011;1872;51.406;6.856;2024-03-02T06:32:13;3.07;;;2.80;;
3712;SDS011;1872;51.406;6.856;2024-03-02T06:34:39;3.17;;;2.97;;
3712;SDS011;1872;51.406;6.856;2024-03-02T06:37:05;2.70;;;2.50;;
3712;SDS011;1872;51.406;6.856;2024-03-02T06:39:30;4.20;;;2.87;;
3712;SDS011;1872;51.406;6.856;2024-03-02T06:41:58;3.30;;;3.10;;
3712;SDS011;1872;51.406;6.856;2024-03-02T06:44:24;3.67;;;2.97;;
3712;SDS011;1872;51.406;6.856;2024-03-02T06:46:50;3.90;;;3.50;;
3712;SDS011;1872;51.406;6.856;2024-03-02T06:49:16;2.90;;;2.70;;
3712;SDS011;1872;51.406;6.856;2024-03-02T06:51:43;3.00;;;2.80;;
3712;SDS011;1872;51.406;6.856;2024-03-02T06:54:09;3.47;;;2.80;;
3712;SDS011;1872;51.406;6.856;2024-03-02T06:56:35;3.20;;;2.90;;
3712;SDS011;1872;51.406;6.856;2024-03-02T06:59:01;3.60;;;3.30;;
3712;SDS011;1872;51.406;6.856;2024-03-02T07:01:26;3.17;;;2.97;;
3712;SDS011;1872;51.406;6.856;2024-03-02T07:03:53;3.57;;;3.17;;
3712;SDS011;1872;51.406;6.856;2024-03-02T07:06:18;4.50;;;3.30;;
3712;SDS011;1872;51.406;6.856;2024-03-02T07:08:44;4.33;;;3.70;;
3712;SDS011;1872;51.406;6.856;2024-03-02T07:11:10;4.23;;;3.37;;
3712;SDS011;1872;51.406;6.856;2024-03-02T07:13:36;3.20;;;3.00;;
3712;SDS011;1872;51.406;6.856;2024-03-02T07:16:02;4.30;;;3.40;;
3712;SDS011;1872;51.406;6.856;2024-03-02T07:18:29;4.00;;;3.70;;
3712;SDS011;1872;51.406;6.856;2024-03-02T07:21:06;3.50;;;3.20;;
3712;SDS011;1872;51.406;6.856;2024-03-02T07:23:32;3.60;;;3.30;;
3712;SDS011;1872;51.406;6.856;2024-03-02T07:25:58;3.60;;;3.30;;
3712;SDS011;1872;51.406;6.856;2024-03-02T07:28:28;3.37;;;3.07;;
3712;SDS011;1872;51.406;6.856;2024-03-02T07:31:03;8.17;;;7.33;;
3712;SDS011;1872;51.406;6.856;2024-03-02T07:33:33;3.73;;;3.30;;
3712;SDS011;1872;51.406;6.856;2024-03-02T07:35:59;4.33;;;2.63;;
3712;SDS011;1872;51.406;6.856;2024-03-02T07:38:25;3.00;;;2.70;;
3712;SDS011;1872;51.406;6.856;2024-03-02T07:40:52;4.30;;;3.60;;
3712;SDS011;1872;51.406;6.856;2024-03-02T07:43:18;3.40;;;3.10;;
3712;SDS011;1872;51.406;6.856;2024-03-02T07:45:44;4.07;;;3.77;;
3712;SDS011;1872;51.406;6.856;2024-03-02T07:48:10;3.50;;;3.20;;
3712;SDS011;1872;51.406;6.856;2024-03-02T07:50:36;3.90;;;3.60;;
3712;SDS011;1872;51.406;6.856;2024-03-02T07:53:04;4.77;;;3.00;;
3712;SDS011;1872;51.406;6.856;2024-03-02T07:55:30;3.93;;;3.63;;
3712;SDS011;1872;51.406;6.856;2024-03-02T07:57:56;4.23;;;3.67;;
3712;SDS011;1872;51.406;6.856;2024-03-02T08:00:23;3.27;;;3.07;;
3712;SDS011;1872;51.406;6.856;2024-03-02T08:02:49;7.47;;;3.90;;
3712;SDS011;1872;51.406;6.856;2024-03-02T08:05:16;5.43;;;3.10;;
3712;SDS011;1872;51.406;6.856;2024-03-02T08:07:44;3.30;;;3.10;;
3712;SDS011;1872;51.406;6.856;2024-03-02T08:10:10;4.33;;;3.47;;
3712;SDS011;1872;51.406;6.856;2024-03-02T08:12:37;3.70;;;3.40;;
3712;SDS011;1872;51.406;6.856;2024-03-02T08:15:02;3.63;;;3.03;;
3712;SDS011;1872;51.406;6.856;2024-03-02T08:17:29;3.50;;;3.30;;
3712;SDS011;1872;51.406;6.856;2024-03-02T08:19:55;3.50;;;3.23;;
3712;SDS011;1872;51.406;6.856;2024-03-02T08:22:21;3.83;;;3.23;;
3712;SDS011;1872;51.406;6.856;2024-03-02T08:24:48;3.43;;;3.03;;
3712;SDS011;1872;51.406;6.856;2024-03-02T08:27:13;3.17;;;2.97;;
3712;SDS011;1872;51.406;6.856;2024-03-02T08:29:40;4.07;;;3.10;;
3712;SDS011;1872;51.406;6.856;2024-03-02T08:32:06;4.80;;;3.10;;
3712;SDS011;1872;51.406;6.856;2024-03-02T08:34:32;3.00;;;2.70;;
3712;SDS011;1872;51.406;6.856;2024-03-02T08:37:00;7.20;;;3.07;;
3712;SDS011;1872;51.406;6.856;2024-03-02T08:39:27;5.50;;;3.30;;
3712;SDS011;1872;51.406;6.856;2024-03-02T08:41:53;3.80;;;3.00;;
3712;SDS011;1872;51.406;6.856;2024-03-02T08:44:18;3.43;;;3.17;;
3712;SDS011;1872;51.406;6.856;2024-03-02T08:46:44;3.27;;;3.07;;
3712;SDS011;1872;51.406;6.856;2024-03-02T08:49:10;3.50;;;3.00;;
3712;SDS011;1872;51.406;6.856;2024-03-02T08:51:37;3.30;;;3.00;;
3712;SDS011;1872;51.406;6.856;2024-03-02T08:54:02;3.57;;;3.27;;
3712;SDS011;1872;51.406;6.856;2024-03-02T08:56:29;3.93;;;3.20;;
3712;SDS011;1872;51.406;6.856;2024-03-02T08:58:56;2.73;;;2.50;;
3712;SDS011;1872;51.406;6.856;2024-03-02T09:01:21;2.53;;;2.33;;
3712;SDS011;1872;51.406;6.856;2024-03-02T09:03:47;2.90;;;2.70;;
3712;SDS011;1872;51.406;6.856;2024-03-02T09:06:14;3.60;;;2.93;;
3712;SDS011;1872;51.406;6.856;2024-03-02T09:08:42;2.53;;;2.33;;
3712;SDS011;1872;51.406;6.856;2024-03-02T09:11:08;3.40;;;3.10;;
3712;SDS011;1872;51.406;6.856;2024-03-02T09:13:36;2.70;;;2.50;;
3712;SDS011;1872;51.406;6.856;2024-03-02T09:16:03;3.43;;;3.13;;
3712;SDS011;1872;51.406;6.856;2024-03-02T09:18:30;4.23;;;2.77;;
3712;SDS011;1872;51.406;6.856;2024-03-02T09:20:56;3.70;;;2.70;;
3712;SDS011;1872;51.406;6.856;2024-03-02T09:23:21;3.10;;;2.57;;
3712;SDS011;1872;51.406;6.856;2024-03-02T09:25:47;2.80;;;2.60;;
3712;SDS011;1872;51.406;6.856;2024-03-02T09:28:15;3.10;;;2.80;;
3712;SDS011;1872;51.406;6.856;2024-03-02T09:30:40;3.13;;;2.87;;
3712;SDS011;1872;51.406;6.856;2024-03-02T09:33:06;2.90;;;2.60;;
3712;SDS011;1872;51.406;6.856;2024-03-02T09:35:32;3.30;;;3.00;;
3712;SDS011;1872;51.406;6.856;2024-03-02T09:37:58;2.53;;;2.43;;
3712;SDS011;1872;51.406;6.856;2024-03-02T09:40:23;3.00;;;2.80;;
3712;SDS011;1872;51.406;6.856;2024-03-02T09:42:50;2.53;;;2.33;;
3712;SDS011;1872;51.406;6.856;2024-03-02T09:45:22;3.47;;;2.80;;
3712;SDS011;1872;51.406;6.856;2024-03-02T09:47:49;2.93;;;2.70;;
3712;SDS011;1872;51.406;6.856;2024-03-02T09:50:15;3.30;;;3.00;;
3712;SDS011;1872;51.406;6.856;2024-03-02T09:52:44;3.07;;;2.40;;
3712;SDS011;1872;51.406;6.856;2024-03-02T09:55:15;2.73;;;2.53;;
3712;SDS011;1872;51.406;6.856;2024-03-02T09:57:42;2.67;;;2.50;;
3712;SDS011;1872;51.406;6.856;2024-03-02T10:00:08;3.20;;;2.70;;
3712;SDS011;1872;51.406;6.856;2024-03-02T10:02:39;3.83;;;2.40;;
3712;SDS011;1872;51.406;6.856;2024-03-02T10:05:08;3.93;;;2.90;;
3712;SDS011;1872;51.406;6.856;2024-03-02T10:07:35;3.27;;;2.97;;
3712;SDS011;1872;51.406;6.856;2024-03-02T10:10:21;3.20;;;2.90;;
3712;SDS011;1872;51.406;6.856;2024-03-02T10:12:47;3.10;;;2.80;;
3712;SDS011;1872;51.406;6.856;2024-03-02T10:15:12;2.50;;;2.30;;
3712;SDS011;1872;51.406;6.856;2024-03-02T10:17:38;3.20;;;3.00;;
3712;SDS011;1872;51.406;6.856;2024-03-02T10:20:23;3.53;;;2.70;;
3712;SDS011;1872;51.406;6.856;2024-03-02T10:22:49;2.80;;;2.50;;
3712;SDS011;1872;51.406;6.856;2024-03-02T10:25:28;2.90;;;2.67;;
3712;SDS011;1872;51.406;6.856;2024-03-02T10:27:58;2.23;;;2.03;;
3712;SDS011;1872;51.406;6.856;2024-03-02T10:30:27;2.80;;;2.60;;
3712;SDS011;1872;51.406;6.856;2024-03-02T10:32:56;2.77;;;2.57;;
3712;SDS011;1872;51.406;6.856;2024-03-02T10:35:22;5.37;;;2.47;;
3712;SDS011;1872;51.406;6.856;2024-03-02T10:37:48;3.03;;;2.57;;
3712;SDS011;1872;51.406;6.856;2024-03-02T10:40:15;2.43;;;2.20;;
3712;SDS011;1872;51.406;6.856;2024-03-02T10:42:41;2.53;;;2.40;;
3712;SDS011;1872;51.406;6.856;2024-03-02T10:45:09;4.10;;;3.60;;
3712;SDS011;1872;51.406;6.856;2024-03-02T10:47:37;3.40;;;3.10;;
3712;SDS011;1872;51.406;6.856;2024-03-02T10:50:04;2.37;;;2.23;;
3712;SDS011;1872;51.406;6.856;2024-03-02T10:52:42;2.80;;;2.60;;
3712;SDS011;1872;51.406;6.856;2024-03-02T10:55:09;4.40;;;4.00;;
3712;SDS011;1872;51.406;6.856;2024-03-02T10:57:51;3.00;;;2.70;;
3712;SDS011;1872;51.406;6.856;2024-03-02T11:00:22;2.80;;;2.60;;
3712;SDS011;1872;51.406;6.856;2024-03-02T11:03:02;2.77;;;2.60;;
3712;SDS011;1872;51.406;6.856;2024-03-02T11:05:38;4.67;;;2.60;;
3712;SDS011;1872;51.406;6.856;2024-03-02T11:08:08;3.00;;;2.60;;
3712;SDS011;1872;51.406;6.856;2024-03-02T11:10:43;3.10;;;2.87;;
3712;SDS011;1872;51.406;6.856;2024-03-02T11:13:11;2.67;;;2.47;;
3712;SDS011;1872;51.406;6.856;2024-03-02T11:15:37;2.70;;;2.50;;
3712;SDS011;1872;51.406;6.856;2024-03-02T11:18:07;2.93;;;2.70;;
3712;SDS011;1872;51.406;6.856;2024-03-02T11:20:37;3.00;;;2.70;;
3712;SDS011;1872;51.406;6.856;2024-03-02T11:23:05;4.03;;;3.20;;
3712;SDS011;1872;51.406;6.856;2024-03-02T11:25:31;3.33;;;3.00;;
3712;SDS011;1872;51.406;6.856;2024-03-02T11:28:02;3.27;;;2.97;;
3712;SDS011;1872;51.406;6.856;2024-03-02T11:32:58;4.40;;;2.80;;
3712;SDS011;1872;51.406;6.856;2024-03-02T11:35:27;2.97;;;2.70;;
3712;SDS011;1872;51.406;6.856;2024-03-02T11:37:54;3.97;;;2.80;;
3712;SDS011;1872;51.406;6.856;2024-03-02T11:40:23;2.43;;;2.23;;
3712;SDS011;1872;51.406;6.856;2024-03-02T11:42:50;2.37;;;2.13;;
3712;SDS011;1872;51.406;6.856;2024-03-02T11:45:16;4.60;;;2.70;;
3712;SDS011;1872;51.406;6.856;2024-03-02T11:47:53;4.20;;;2.70;;
3712;SDS011;1872;51.406;6.856;2024-03-02T11:50:34;3.10;;;2.77;;
3712;SDS011;1872;51.406;6.856;2024-03-02T11:53:05;2.90;;;2.53;;
3712;SDS011;1872;51.406;6.856;2024-03-02T11:55:32;2.40;;;2.20;;
3712;SDS011;1872;51.406;6.856;2024-03-02T11:58:06;2.60;;;2.40;;
3712;SDS011;1872;51.406;6.856;2024-03-02T12:00:32;2.50;;;2.30;;
3712;SDS011;1872;51.406;6.856;2024-03-02T12:05:29;2.93;;;2.63;;
3712;SDS011;1872;51.406;6.856;2024-03-02T12:07:58;2.30;;;2.07;;
3712;SDS011;1872;51.406;6.856;2024-03-02T12:10:28;2.80;;;2.30;;
3712;SDS011;1872;51.406;6.856;2024-03-02T12:12:59;2.80;;;2.60;;
3712;SDS011;1872;51.406;6.856;2024-03-02T12:15:29;2.50;;;2.30;;
3712;SDS011;1872;51.406;6.856;2024-03-02T12:17:57;2.57;;;2.43;;
3712;SDS011;1872;51.406;6.856;2024-03-02T12:20:24;2.80;;;2.33;;
3712;SDS011;1872;51.406;6.856;2024-03-02T12:22:52;2.73;;;2.23;;
3712;SDS011;1872;51.406;6.856;2024-03-02T12:25:22;2.33;;;2.13;;
3712;SDS011;1872;51.406;6.856;2024-03-02T12:27:50;4.10;;;2.83;;
3712;SDS011;1872;51.406;6.856;2024-03-02T12:30:20;2.70;;;2.40;;
3712;SDS011;1872;51.406;6.856;2024-03-02T12:32:46;2.60;;;2.40;;
3712;SDS011;1872;51.406;6.856;2024-03-02T12:35:12;2.43;;;2.23;;
3712;SDS011;1872;51.406;6.856;2024-03-02T12:37:44;2.73;;;2.53;;
3712;SDS011;1872;51.406;6.856;2024-03-02T12:40:12;2.50;;;2.30;;
3712;SDS011;1872;51.406;6.856;2024-03-02T12:42:39;3.63;;;2.33;;
3712;SDS011;1872;51.406;6.856;2024-03-02T12:45:07;3.53;;;2.43;;
3712;SDS011;1872;51.406;6.856;2024-03-02T12:47:33;2.37;;;2.13;;
3712;SDS011;1872;51.406;6.856;2024-03-02T12:50:00;1.90;;;1.80;;
3712;SDS011;1872;51.406;6.856;2024-03-02T12:52:26;2.37;;;2.20;;
3712;SDS011;1872;51.406;6.856;2024-03-02T12:54:52;2.43;;;2.23;;
3712;SDS011;1872;51.406;6.856;2024-03-02T12:57:24;2.13;;;2.03;;
3712;SDS011;1872;51.406;6.856;2024-03-02T12:59:51;2.93;;;2.20;;
3712;SDS011;1872;51.406;6.856;2024-03-02T13:02:17;5.50;;;2.83;;
3712;SDS011;1872;51.406;6.856;2024-03-02T13:04:44;2.10;;;2.00;;
3712;SDS011;1872;51.406;6.856;2024-03-02T13:07:10;2.40;;;2.30;;
3712;SDS011;1872;51.406;6.856;2024-03-02T13:09:38;2.23;;;2.07;;
3712;SDS011;1872;51.406;6.856;2024-03-02T13:12:04;2.00;;;1.90;;
3712;SDS011;1872;51.406;6.856;2024-03-02T13:14:33;3.10;;;2.00;;
3712;SDS011;1872;51.406;6.856;2024-03-02T13:17:01;2.10;;;2.00;;
3712;SDS011;1872;51.406;6.856;2024-03-02T13:19:29;2.20;;;2.00;;
3712;SDS011;1872;51.406;6.856;2024-03-02T13:21:56;2.00;;;1.90;;
3712;SDS011;1872;51.406;6.856;2024-03-02T13:24:22;2.07;;;1.80;;
3712;SDS011;1872;51.406;6.856;2024-03-02T13:26:50;1.87;;;1.77;;
3712;SDS011;1872;51.406;6.856;2024-03-02T13:29:20;1.80;;;1.70;;
3712;SDS011;1872;51.406;6.856;2024-03-02T13:31:46;2.00;;;1.90;;
3712;SDS011;1872;51.406;6.856;2024-03-02T13:34:12;4.57;;;2.20;;
3712;SDS011;1872;51.406;6.856;2024-03-02T13:36:38;3.33;;;1.90;;
3712;SDS011;1872;51.406;6.856;2024-03-02T13:39:04;1.80;;;1.70;;
3712;SDS011;1872;51.406;6.856;2024-03-02T13:41:36;3.90;;;2.00;;
3712;SDS011;1872;51.406;6.856;2024-03-02T13:44:03;1.83;;;1.70;;
3712;SDS011;1872;51.406;6.856;2024-03-02T13:46:29;2.57;;;2.10;;
3712;SDS011;1872;51.406;6.856;2024-03-02T13:48:56;2.00;;;1.80;;
3712;SDS011;1872;51.406;6.856;2024-03-02T13:51:22;2.80;;;2.43;;
3712;SDS011;1872;51.406;6.856;2024-03-02T13:53:48;2.27;;;2.07;;
3712;SDS011;1872;51.406;6.856;2024-03-02T13:56:13;2.50;;;2.30;;
3712;SDS011;1872;51.406;6.856;2024-03-02T13:58:39;2.30;;;2.20;;
3712;SDS011;1872;51.406;6.856;2024-03-02T14:01:05;2.40;;;2.20;;
3712;SDS011;1872;51.406;6.856;2024-03-02T14:03:31;2.17;;;2.07;;
3712;SDS011;1872;51.406;6.856;2024-03-02T14:05:56;1.80;;;1.70;;
3712;SDS011;1872;51.406;6.856;2024-03-02T14:08:23;2.27;;;2.07;;
3712;SDS011;1872;51.406;6.856;2024-03-02T14:10:49;1.70;;;1.60;;
3712;SDS011;1872;51.406;6.856;2024-03-02T14:13:15;1.90;;;1.70;;
3712;SDS011;1872;51.406;6.856;2024-03-02T14:15:41;1.70;;;1.60;;
3712;SDS011;1872;51.406;6.856;2024-03-02T14:18:07;1.67;;;1.57;;
3712;SDS011;1872;51.406;6.856;2024-03-02T14:20:37;1.87;;;1.77;;
3712;SDS011;1872;51.406;6.856;2024-03-02T14:23:04;1.77;;;1.67;;
3712;SDS011;1872;51.406;6.856;2024-03-02T14:25:29;3.23;;;1.80;;
3712;SDS011;1872;51.406;6.856;2024-03-02T14:27:59;2.10;;;1.93;;
3712;SDS011;1872;51.406;6.856;2024-03-02T14:30:25;2.07;;;1.77;;
3712;SDS011;1872;51.406;6.856;2024-03-02T14:32:50;1.93;;;1.80;;
3712;SDS011;1872;51.406;6.856;2024-03-02T14:35:16;2.20;;;1.97;;
3712;SDS011;1872;51.406;6.856;2024-03-02T14:37:42;2.17;;;2.07;;
3712;SDS011;1872;51.406;6.856;2024-03-02T14:40:08;2.03;;;1.87;;
3712;SDS011;1872;51.406;6.856;2024-03-02T14:42:34;2.03;;;1.87;;
3712;SDS011;1872;51.406;6.856;2024-03-02T14:45:01;2.80;;;1.70;;
3712;SDS011;1872;51.406;6.856;2024-03-02T14:47:29;2.30;;;1.80;;
3712;SDS011;1872;51.406;6.856;2024-03-02T14:49:57;3.00;;;1.60;;
3712;SDS011;1872;51.406;6.856;2024-03-02T14:52:23;1.83;;;1.70;;
3712;SDS011;1872;51.406;6.856;2024-03-02T14:54:49;1.80;;;1.70;;
3712;SDS011;1872;51.406;6.856;2024-03-02T14:57:14;3.40;;;2.23;;
3712;SDS011;1872;51.406;6.856;2024-03-02T14:59:40;1.80;;;1.70;;
3712;SDS011;1872;51.406;6.856;2024-03-02T15:02:07;2.00;;;1.90;;
3712;SDS011;1872;51.406;6.856;2024-03-02T15:04:33;1.73;;;1.60;;
3712;SDS011;1872;51.406;6.856;2024-03-02T15:06:59;1.90;;;1.80;;
3712;SDS011;1872;51.406;6.856;2024-03-02T15:09:25;1.97;;;1.87;;
3712;SDS011;1872;51.406;6.856;2024-03-02T15:11:50;1.73;;;1.63;;
3712;SDS011;1872;51.406;6.856;2024-03-02T15:14:16;3.40;;;1.70;;
3712;SDS011;1872;51.406;6.856;2024-03-02T15:16:42;1.80;;;1.70;;
3712;SDS011;1872;51.406;6.856;2024-03-02T15:19:07;2.27;;;1.70;;
3712;SDS011;1872;51.406;6.856;2024-03-02T15:21:33;2.30;;;1.70;;
3712;SDS011;1872;51.406;6.856;2024-03-02T15:23:59;2.00;;;1.90;;
3712;SDS011;1872;51.406;6.856;2024-03-02T15:26:25;1.70;;;1.60;;
3712;SDS011;1872;51.406;6.856;2024-03-02T15:28:51;1.80;;;1.70;;
3712;SDS011;1872;51.406;6.856;2024-03-02T15:31:18;1.80;;;1.70;;
3712;SDS011;1872;51.406;6.856;2024-03-02T15:33:44;1.93;;;1.83;;
3712;SDS011;1872;51.406;6.856;2024-03-02T15:36:10;2.40;;;1.87;;
3712;SDS011;1872;51.406;6.856;2024-03-02T15:38:36;1.77;;;1.67;;